sensor_id;sensor_type;location;lat;lon;timestamp;P1;durP1;ratioP1;P2;durP2;ratioP2
36315;SDS011;22343;50.820;2.666;2023-11-21T00:01:50;12.80;;;8.43;;
36315;SDS011;22343;50.820;2.666;2023-11-21T00:04:36;13.03;;;8.40;;
36315;SDS011;22343;50.820;2.666;2023-11-21T00:07:21;15.53;;;8.40;;
36315;SDS011;22343;50.820;2.666;2023-11-21T00:10:06;14.53;;;8.80;;
36315;SDS011;22343;50.820;2.666;2023-11-21T00:12:52;18.33;;;9.17;;
36315;SDS011;22343;50.820;2.666;2023-11-21T00:15:38;21.63;;;9.60;;
36315;SDS011;22343;50.820;2.666;2023-11-21T00:18:23;17.43;;;9.43;;
36315;SDS011;22343;50.820;2.666;2023-11-21T00:21:08;17.83;;;9.53;;
36315;SDS011;22343;50.820;2.666;2023-11-21T00:23:53;17.47;;;9.37;;
36315;SDS011;22343;50.820;2.666;2023-11-21T00:26:37;22.97;;;10.47;;
36315;SDS011;22343;50.820;2.666;2023-11-21T00:29:22;21.23;;;10.27;;
36315;SDS011;22343;50.820;2.666;2023-11-21T00:32:06;21.33;;;9.93;;
36315;SDS011;22343;50.820;2.666;2023-11-21T00:34:51;16.87;;;10.40;;
36315;SDS011;22343;50.820;2.666;2023-11-21T00:37:35;20.10;;;10.77;;
36315;SDS011;22343;50.820;2.666;2023-11-21T00:40:19;18.30;;;9.97;;
36315;SDS011;22343;50.820;2.666;2023-11-21T00:43:05;15.50;;;9.93;;
36315;SDS011;22343;50.820;2.666;2023-11-21T00:45:49;16.40;;;9.30;;
36315;SDS011;22343;50.820;2.666;2023-11-21T00:48:33;18.30;;;10.83;;
36315;SDS011;22343;50.820;2.666;2023-11-21T00:51:18;15.60;;;10.40;;
36315;SDS011;22343;50.820;2.666;2023-11-21T00:54:02;15.53;;;9.97;;
36315;SDS011;22343;50.820;2.666;2023-11-21T00:56:47;20.73;;;11.57;;
36315;SDS011;22343;50.820;2.666;2023-11-21T00:59:32;18.63;;;11.27;;
36315;SDS011;22343;50.820;2.666;2023-11-21T01:02:16;15.93;;;10.70;;
36315;SDS011;22343;50.820;2.666;2023-11-21T01:05:00;16.53;;;12.07;;
36315;SDS011;22343;50.820;2.666;2023-11-21T01:07:44;15.63;;;11.40;;
36315;SDS011;22343;50.820;2.666;2023-11-21T01:10:29;16.27;;;11.53;;
36315;SDS011;22343;50.820;2.666;2023-11-21T01:13:13;16.77;;;12.10;;
36315;SDS011;22343;50.820;2.666;2023-11-21T01:15:59;17.23;;;11.43;;
36315;SDS011;22343;50.820;2.666;2023-11-21T01:18:43;18.90;;;12.30;;
36315;SDS011;22343;50.820;2.666;2023-11-21T01:21:27;17.50;;;11.20;;
36315;SDS011;22343;50.820;2.666;2023-11-21T01:24:13;17.00;;;11.47;;
36315;SDS011;22343;50.820;2.666;2023-11-21T01:26:57;19.00;;;12.13;;
36315;SDS011;22343;50.820;2.666;2023-11-21T01:29:41;16.30;;;11.70;;
36315;SDS011;22343;50.820;2.666;2023-11-21T01:32:26;17.23;;;11.50;;
36315;SDS011;22343;50.820;2.666;2023-11-21T01:35:10;15.73;;;11.47;;
36315;SDS011;22343;50.820;2.666;2023-11-21T01:37:54;18.17;;;12.93;;
36315;SDS011;22343;50.820;2.666;2023-11-21T01:40:39;17.13;;;12.47;;
36315;SDS011;22343;50.820;2.666;2023-11-21T01:43:24;18.57;;;12.53;;
36315;SDS011;22343;50.820;2.666;2023-11-21T01:46:09;20.97;;;12.17;;
36315;SDS011;22343;50.820;2.666;2023-11-21T01:48:54;16.53;;;12.33;;
36315;SDS011;22343;50.820;2.666;2023-11-21T01:51:41;17.50;;;12.67;;
36315;SDS011;22343;50.820;2.666;2023-11-21T01:54:27;16.83;;;12.27;;
36315;SDS011;22343;50.820;2.666;2023-11-21T01:57:15;17.43;;;12.73;;
36315;SDS011;22343;50.820;2.666;2023-11-21T01:59:59;17.03;;;12.70;;
36315;SDS011;22343;50.820;2.666;2023-11-21T02:02:55;17.73;;;12.50;;
36315;SDS011;22343;50.820;2.666;2023-11-21T02:05:40;19.27;;;12.83;;
36315;SDS011;22343;50.820;2.666;2023-11-21T02:08:24;19.23;;;13.03;;
36315;SDS011;22343;50.820;2.666;2023-11-21T02:11:09;17.23;;;12.70;;
36315;SDS011;22343;50.820;2.666;2023-11-21T02:13:58;19.67;;;13.30;;
36315;SDS011;22343;50.820;2.666;2023-11-21T02:16:43;19.60;;;13.70;;
36315;SDS011;22343;50.820;2.666;2023-11-21T02:19:29;21.60;;;13.90;;
36315;SDS011;22343;50.820;2.666;2023-11-21T02:22:14;20.63;;;13.70;;
36315;SDS011;22343;50.820;2.666;2023-11-21T02:25:00;22.43;;;13.93;;
36315;SDS011;22343;50.820;2.666;2023-11-21T02:27:45;20.37;;;13.67;;
36315;SDS011;22343;50.820;2.666;2023-11-21T02:30:32;19.53;;;13.67;;
36315;SDS011;22343;50.820;2.666;2023-11-21T02:33:16;20.23;;;14.07;;
36315;SDS011;22343;50.820;2.666;2023-11-21T02:36:01;18.57;;;13.57;;
36315;SDS011;22343;50.820;2.666;2023-11-21T02:38:46;17.70;;;13.33;;
36315;SDS011;22343;50.820;2.666;2023-11-21T02:41:31;18.70;;;13.37;;
36315;SDS011;22343;50.820;2.666;2023-11-21T02:44:15;18.67;;;13.50;;
36315;SDS011;22343;50.820;2.666;2023-11-21T02:46:59;19.37;;;12.37;;
36315;SDS011;22343;50.820;2.666;2023-11-21T02:49:44;18.17;;;12.57;;
36315;SDS011;22343;50.820;2.666;2023-11-21T02:52:28;17.47;;;12.73;;
36315;SDS011;22343;50.820;2.666;2023-11-21T02:55:12;15.83;;;11.60;;
36315;SDS011;22343;50.820;2.666;2023-11-21T02:57:57;16.97;;;11.57;;
36315;SDS011;22343;50.820;2.666;2023-11-21T03:00:41;18.83;;;11.50;;
36315;SDS011;22343;50.820;2.666;2023-11-21T03:03:26;18.73;;;11.40;;
36315;SDS011;22343;50.820;2.666;2023-11-21T03:06:10;15.97;;;11.37;;
36315;SDS011;22343;50.820;2.666;2023-11-21T03:08:54;15.00;;;10.83;;
36315;SDS011;22343;50.820;2.666;2023-11-21T03:11:39;14.50;;;10.43;;
36315;SDS011;22343;50.820;2.666;2023-11-21T03:14:23;16.33;;;11.30;;
36315;SDS011;22343;50.820;2.666;2023-11-21T03:17:08;14.77;;;9.83;;
36315;SDS011;22343;50.820;2.666;2023-11-21T03:19:52;16.97;;;10.90;;
36315;SDS011;22343;50.820;2.666;2023-11-21T03:22:37;13.83;;;10.07;;
36315;SDS011;22343;50.820;2.666;2023-11-21T03:25:22;15.13;;;10.40;;
36315;SDS011;22343;50.820;2.666;2023-11-21T03:28:07;14.17;;;9.30;;
36315;SDS011;22343;50.820;2.666;2023-11-21T03:30:52;12.67;;;8.80;;
36315;SDS011;22343;50.820;2.666;2023-11-21T03:33:37;13.20;;;8.87;;
36315;SDS011;22343;50.820;2.666;2023-11-21T03:36:21;12.77;;;8.57;;
36315;SDS011;22343;50.820;2.666;2023-11-21T03:39:06;16.77;;;8.37;;
36315;SDS011;22343;50.820;2.666;2023-11-21T03:41:50;12.40;;;8.80;;
36315;SDS011;22343;50.820;2.666;2023-11-21T03:44:35;11.80;;;8.30;;
36315;SDS011;22343;50.820;2.666;2023-11-21T03:47:20;16.93;;;8.73;;
36315;SDS011;22343;50.820;2.666;2023-11-21T03:50:04;12.87;;;8.60;;
36315;SDS011;22343;50.820;2.666;2023-11-21T03:52:49;12.67;;;8.70;;
36315;SDS011;22343;50.820;2.666;2023-11-21T03:55:34;13.43;;;8.67;;
36315;SDS011;22343;50.820;2.666;2023-11-21T03:58:18;13.50;;;7.80;;
36315;SDS011;22343;50.820;2.666;2023-11-21T04:01:03;13.07;;;8.00;;
36315;SDS011;22343;50.820;2.666;2023-11-21T04:03:47;11.00;;;7.77;;
36315;SDS011;22343;50.820;2.666;2023-11-21T04:06:32;11.23;;;6.80;;
36315;SDS011;22343;50.820;2.666;2023-11-21T04:09:17;12.63;;;6.80;;
36315;SDS011;22343;50.820;2.666;2023-11-21T04:12:02;12.07;;;6.93;;
36315;SDS011;22343;50.820;2.666;2023-11-21T04:14:46;11.27;;;6.43;;
36315;SDS011;22343;50.820;2.666;2023-11-21T04:17:30;9.73;;;6.33;;
36315;SDS011;22343;50.820;2.666;2023-11-21T04:20:15;8.43;;;5.63;;
36315;SDS011;22343;50.820;2.666;2023-11-21T04:22:59;8.97;;;5.50;;
36315;SDS011;22343;50.820;2.666;2023-11-21T04:25:43;9.80;;;5.60;;
36315;SDS011;22343;50.820;2.666;2023-11-21T04:28:28;9.27;;;4.90;;
36315;SDS011;22343;50.820;2.666;2023-11-21T04:31:13;6.47;;;3.50;;
36315;SDS011;22343;50.820;2.666;2023-11-21T04:33:57;6.80;;;3.17;;
36315;SDS011;22343;50.820;2.666;2023-11-21T04:36:41;4.33;;;3.00;;
36315;SDS011;22343;50.820;2.666;2023-11-21T04:39:26;3.87;;;2.30;;
36315;SDS011;22343;50.820;2.666;2023-11-21T04:42:10;4.37;;;2.03;;
36315;SDS011;22343;50.820;2.666;2023-11-21T04:44:56;4.43;;;2.20;;
36315;SDS011;22343;50.820;2.666;2023-11-21T04:47:41;2.53;;;1.70;;
36315;SDS011;22343;50.820;2.666;2023-11-21T04:50:25;3.17;;;1.77;;
36315;SDS011;22343;50.820;2.666;2023-11-21T04:53:11;3.90;;;1.83;;
36315;SDS011;22343;50.820;2.666;2023-11-21T04:55:58;2.80;;;1.70;;
36315;SDS011;22343;50.820;2.666;2023-11-21T04:58:42;3.87;;;1.80;;
36315;SDS011;22343;50.820;2.666;2023-11-21T05:01:27;4.93;;;1.97;;
36315;SDS011;22343;50.820;2.666;2023-11-21T05:04:11;3.87;;;1.40;;
36315;SDS011;22343;50.820;2.666;2023-11-21T05:06:55;3.20;;;1.47;;
36315;SDS011;22343;50.820;2.666;2023-11-21T05:09:41;3.93;;;1.87;;
36315;SDS011;22343;50.820;2.666;2023-11-21T05:12:30;3.07;;;1.60;;
36315;SDS011;22343;50.820;2.666;2023-11-21T05:15:19;3.40;;;1.60;;
36315;SDS011;22343;50.820;2.666;2023-11-21T05:18:05;4.90;;;2.00;;
36315;SDS011;22343;50.820;2.666;2023-11-21T05:20:49;4.23;;;1.70;;
36315;SDS011;22343;50.820;2.666;2023-11-21T05:23:34;6.10;;;1.80;;
36315;SDS011;22343;50.820;2.666;2023-11-21T05:26:18;3.33;;;1.63;;
36315;SDS011;22343;50.820;2.666;2023-11-21T05:29:02;4.53;;;1.80;;
36315;SDS011;22343;50.820;2.666;2023-11-21T05:31:47;4.23;;;1.77;;
36315;SDS011;22343;50.820;2.666;2023-11-21T05:34:31;2.70;;;1.50;;
36315;SDS011;22343;50.820;2.666;2023-11-21T05:37:15;3.03;;;1.50;;
36315;SDS011;22343;50.820;2.666;2023-11-21T05:40:02;2.60;;;1.40;;
36315;SDS011;22343;50.820;2.666;2023-11-21T05:42:50;2.27;;;1.70;;
36315;SDS011;22343;50.820;2.666;2023-11-21T05:45:35;3.10;;;1.57;;
36315;SDS011;22343;50.820;2.666;2023-11-21T05:48:19;1.70;;;1.13;;
36315;SDS011;22343;50.820;2.666;2023-11-21T05:51:06;3.73;;;1.50;;
36315;SDS011;22343;50.820;2.666;2023-11-21T05:53:50;3.63;;;1.50;;
36315;SDS011;22343;50.820;2.666;2023-11-21T05:56:34;1.40;;;1.10;;
36315;SDS011;22343;50.820;2.666;2023-11-21T05:59:19;4.03;;;1.73;;
36315;SDS011;22343;50.820;2.666;2023-11-21T06:02:04;4.43;;;1.30;;
36315;SDS011;22343;50.820;2.666;2023-11-21T06:04:49;3.50;;;1.30;;
36315;SDS011;22343;50.820;2.666;2023-11-21T06:07:34;3.83;;;1.40;;
36315;SDS011;22343;50.820;2.666;2023-11-21T06:10:20;4.30;;;1.50;;
36315;SDS011;22343;50.820;2.666;2023-11-21T06:13:05;2.63;;;1.30;;
36315;SDS011;22343;50.820;2.666;2023-11-21T06:15:51;4.37;;;1.70;;
36315;SDS011;22343;50.820;2.666;2023-11-21T06:18:35;6.33;;;1.60;;
36315;SDS011;22343;50.820;2.666;2023-11-21T06:21:20;4.40;;;1.60;;
36315;SDS011;22343;50.820;2.666;2023-11-21T06:24:04;2.30;;;1.60;;
36315;SDS011;22343;50.820;2.666;2023-11-21T06:26:49;2.20;;;1.70;;
36315;SDS011;22343;50.820;2.666;2023-11-21T06:29:33;2.43;;;1.77;;
36315;SDS011;22343;50.820;2.666;2023-11-21T06:32:17;4.07;;;1.83;;
36315;SDS011;22343;50.820;2.666;2023-11-21T06:35:02;3.87;;;2.20;;
36315;SDS011;22343;50.820;2.666;2023-11-21T06:37:48;5.23;;;2.60;;
36315;SDS011;22343;50.820;2.666;2023-11-21T06:40:32;5.03;;;2.30;;
36315;SDS011;22343;50.820;2.666;2023-11-21T06:43:18;7.17;;;2.80;;
36315;SDS011;22343;50.820;2.666;2023-11-21T06:46:02;6.90;;;2.70;;
36315;SDS011;22343;50.820;2.666;2023-11-21T06:48:48;3.90;;;2.47;;
36315;SDS011;22343;50.820;2.666;2023-11-21T06:51:33;4.07;;;2.67;;
36315;SDS011;22343;50.820;2.666;2023-11-21T06:54:18;5.90;;;2.50;;
36315;SDS011;22343;50.820;2.666;2023-11-21T06:57:02;3.77;;;2.47;;
36315;SDS011;22343;50.820;2.666;2023-11-21T06:59:47;5.70;;;2.50;;
36315;SDS011;22343;50.820;2.666;2023-11-21T07:02:31;5.43;;;2.30;;
36315;SDS011;22343;50.820;2.666;2023-11-21T07:05:16;3.97;;;2.10;;
36315;SDS011;22343;50.820;2.666;2023-11-21T07:08:04;4.43;;;1.90;;
36315;SDS011;22343;50.820;2.666;2023-11-21T07:10:49;5.83;;;2.10;;
36315;SDS011;22343;50.820;2.666;2023-11-21T07:13:33;4.33;;;2.07;;
36315;SDS011;22343;50.820;2.666;2023-11-21T07:16:18;3.30;;;1.90;;
36315;SDS011;22343;50.820;2.666;2023-11-21T07:19:03;4.93;;;2.10;;
36315;SDS011;22343;50.820;2.666;2023-11-21T07:21:50;2.30;;;2.10;;
36315;SDS011;22343;50.820;2.666;2023-11-21T07:24:35;2.97;;;2.00;;
36315;SDS011;22343;50.820;2.666;2023-11-21T07:27:20;4.13;;;2.10;;
36315;SDS011;22343;50.820;2.666;2023-11-21T07:30:05;4.60;;;2.20;;
36315;SDS011;22343;50.820;2.666;2023-11-21T07:32:51;3.03;;;2.20;;
36315;SDS011;22343;50.820;2.666;2023-11-21T07:35:36;4.33;;;2.70;;
36315;SDS011;22343;50.820;2.666;2023-11-21T07:38:20;3.47;;;2.70;;
36315;SDS011;22343;50.820;2.666;2023-11-21T07:41:05;3.13;;;2.17;;
36315;SDS011;22343;50.820;2.666;2023-11-21T07:43:51;8.27;;;2.50;;
36315;SDS011;22343;50.820;2.666;2023-11-21T07:46:36;6.63;;;2.77;;
36315;SDS011;22343;50.820;2.666;2023-11-21T07:49:20;5.60;;;2.70;;
36315;SDS011;22343;50.820;2.666;2023-11-21T07:52:05;4.23;;;2.50;;
36315;SDS011;22343;50.820;2.666;2023-11-21T07:54:49;5.07;;;2.47;;
36315;SDS011;22343;50.820;2.666;2023-11-21T07:57:34;4.43;;;2.40;;
36315;SDS011;22343;50.820;2.666;2023-11-21T08:00:19;5.37;;;2.40;;
36315;SDS011;22343;50.820;2.666;2023-11-21T08:03:05;8.43;;;2.60;;
36315;SDS011;22343;50.820;2.666;2023-11-21T08:05:49;3.87;;;2.33;;
36315;SDS011;22343;50.820;2.666;2023-11-21T08:08:37;4.90;;;2.00;;
36315;SDS011;22343;50.820;2.666;2023-11-21T08:11:21;3.80;;;2.00;;
36315;SDS011;22343;50.820;2.666;2023-11-21T08:14:05;3.43;;;2.07;;
36315;SDS011;22343;50.820;2.666;2023-11-21T08:16:50;3.20;;;2.17;;
36315;SDS011;22343;50.820;2.666;2023-11-21T08:19:34;5.47;;;3.20;;
36315;SDS011;22343;50.820;2.666;2023-11-21T08:22:19;7.93;;;3.50;;
36315;SDS011;22343;50.820;2.666;2023-11-21T08:25:04;4.13;;;2.30;;
36315;SDS011;22343;50.820;2.666;2023-11-21T08:27:49;4.97;;;2.50;;
36315;SDS011;22343;50.820;2.666;2023-11-21T08:30:33;2.43;;;1.60;;
36315;SDS011;22343;50.820;2.666;2023-11-21T08:33:19;5.73;;;1.83;;
36315;SDS011;22343;50.820;2.666;2023-11-21T08:36:06;3.67;;;1.73;;
36315;SDS011;22343;50.820;2.666;2023-11-21T08:38:52;2.57;;;2.00;;
36315;SDS011;22343;50.820;2.666;2023-11-21T08:41:36;3.30;;;2.17;;
36315;SDS011;22343;50.820;2.666;2023-11-21T08:44:21;4.23;;;2.20;;
36315;SDS011;22343;50.820;2.666;2023-11-21T08:47:06;7.03;;;2.57;;
36315;SDS011;22343;50.820;2.666;2023-11-21T08:49:51;4.30;;;2.70;;
36315;SDS011;22343;50.820;2.666;2023-11-21T08:52:39;5.03;;;2.97;;
36315;SDS011;22343;50.820;2.666;2023-11-21T08:55:24;5.60;;;3.00;;
36315;SDS011;22343;50.820;2.666;2023-11-21T08:58:08;4.57;;;2.60;;
36315;SDS011;22343;50.820;2.666;2023-11-21T09:00:53;3.70;;;2.50;;
36315;SDS011;22343;50.820;2.666;2023-11-21T09:03:37;4.40;;;2.70;;
36315;SDS011;22343;50.820;2.666;2023-11-21T09:06:21;6.40;;;2.93;;
36315;SDS011;22343;50.820;2.666;2023-11-21T09:09:06;6.27;;;2.83;;
36315;SDS011;22343;50.820;2.666;2023-11-21T09:11:52;5.60;;;2.53;;
36315;SDS011;22343;50.820;2.666;2023-11-21T09:14:36;5.00;;;2.60;;
36315;SDS011;22343;50.820;2.666;2023-11-21T09:17:21;4.87;;;2.70;;
36315;SDS011;22343;50.820;2.666;2023-11-21T09:20:05;4.07;;;2.57;;
36315;SDS011;22343;50.820;2.666;2023-11-21T09:22:53;3.97;;;2.70;;
36315;SDS011;22343;50.820;2.666;2023-11-21T09:25:39;4.60;;;2.90;;
36315;SDS011;22343;50.820;2.666;2023-11-21T09:28:24;7.23;;;3.00;;
36315;SDS011;22343;50.820;2.666;2023-11-21T09:31:08;5.90;;;3.17;;
36315;SDS011;22343;50.820;2.666;2023-11-21T09:33:53;6.97;;;3.10;;
36315;SDS011;22343;50.820;2.666;2023-11-21T09:36:38;5.60;;;3.33;;
36315;SDS011;22343;50.820;2.666;2023-11-21T09:39:23;6.87;;;3.17;;
36315;SDS011;22343;50.820;2.666;2023-11-21T09:42:30;7.97;;;2.70;;
36315;SDS011;22343;50.820;2.666;2023-11-21T09:48:20;7.73;;;2.70;;
36315;SDS011;22343;50.820;2.666;2023-11-21T09:51:06;5.83;;;2.47;;
36315;SDS011;22343;50.820;2.666;2023-11-21T09:53:52;3.20;;;2.07;;
36315;SDS011;22343;50.820;2.666;2023-11-21T09:56:39;5.70;;;2.37;;
36315;SDS011;22343;50.820;2.666;2023-11-21T09:59:24;5.93;;;2.20;;
36315;SDS011;22343;50.820;2.666;2023-11-21T10:02:09;10.10;;;2.63;;
36315;SDS011;22343;50.820;2.666;2023-11-21T10:04:57;5.90;;;2.30;;
36315;SDS011;22343;50.820;2.666;2023-11-21T10:07:43;7.97;;;2.57;;
36315;SDS011;22343;50.820;2.666;2023-11-21T10:10:28;10.07;;;2.80;;
36315;SDS011;22343;50.820;2.666;2023-11-21T10:13:14;5.93;;;2.13;;
36315;SDS011;22343;50.820;2.666;2023-11-21T10:16:03;8.93;;;2.50;;
36315;SDS011;22343;50.820;2.666;2023-11-21T10:18:49;6.47;;;2.67;;
36315;SDS011;22343;50.820;2.666;2023-11-21T10:21:39;5.40;;;1.87;;
36315;SDS011;22343;50.820;2.666;2023-11-21T10:24:24;4.23;;;1.90;;
36315;SDS011;22343;50.820;2.666;2023-11-21T10:27:08;6.60;;;1.77;;
36315;SDS011;22343;50.820;2.666;2023-11-21T10:29:52;4.63;;;2.00;;
36315;SDS011;22343;50.820;2.666;2023-11-21T10:32:38;9.57;;;2.23;;
36315;SDS011;22343;50.820;2.666;2023-11-21T10:35:24;5.03;;;1.80;;
36315;SDS011;22343;50.820;2.666;2023-11-21T10:38:08;2.87;;;1.70;;
36315;SDS011;22343;50.820;2.666;2023-11-21T10:40:54;3.27;;;1.57;;
36315;SDS011;22343;50.820;2.666;2023-11-21T10:43:38;4.57;;;1.73;;
36315;SDS011;22343;50.820;2.666;2023-11-21T10:46:23;3.93;;;1.83;;
36315;SDS011;22343;50.820;2.666;2023-11-21T10:49:10;3.93;;;1.80;;
36315;SDS011;22343;50.820;2.666;2023-11-21T10:51:54;6.47;;;1.97;;
36315;SDS011;22343;50.820;2.666;2023-11-21T10:54:40;4.73;;;2.07;;
36315;SDS011;22343;50.820;2.666;2023-11-21T10:57:24;5.60;;;2.20;;
36315;SDS011;22343;50.820;2.666;2023-11-21T11:00:09;5.73;;;2.00;;
36315;SDS011;22343;50.820;2.666;2023-11-21T11:02:57;5.07;;;2.20;;
36315;SDS011;22343;50.820;2.666;2023-11-21T11:05:43;5.23;;;2.30;;
36315;SDS011;22343;50.820;2.666;2023-11-21T11:08:35;5.67;;;2.37;;
36315;SDS011;22343;50.820;2.666;2023-11-21T11:11:19;7.40;;;2.33;;
36315;SDS011;22343;50.820;2.666;2023-11-21T11:14:04;5.50;;;2.70;;
36315;SDS011;22343;50.820;2.666;2023-11-21T11:16:48;6.20;;;2.60;;
36315;SDS011;22343;50.820;2.666;2023-11-21T11:19:33;3.83;;;1.90;;
36315;SDS011;22343;50.820;2.666;2023-11-21T11:22:42;2.50;;;1.80;;
36315;SDS011;22343;50.820;2.666;2023-11-21T11:29:03;5.77;;;2.50;;
36315;SDS011;22343;50.820;2.666;2023-11-21T11:32:02;4.03;;;2.20;;
36315;SDS011;22343;50.820;2.666;2023-11-21T11:34:55;4.13;;;2.23;;
36315;SDS011;22343;50.820;2.666;2023-11-21T11:37:43;4.37;;;2.70;;
36315;SDS011;22343;50.820;2.666;2023-11-21T11:40:52;5.17;;;2.87;;
36315;SDS011;22343;50.820;2.666;2023-11-21T11:43:35;5.40;;;2.80;;
36315;SDS011;22343;50.820;2.666;2023-11-21T11:46:42;4.20;;;2.47;;
36315;SDS011;22343;50.820;2.666;2023-11-21T11:49:29;5.87;;;2.80;;
36315;SDS011;22343;50.820;2.666;2023-11-21T11:55:24;8.67;;;3.00;;
36315;SDS011;22343;50.820;2.666;2023-11-21T11:58:08;6.77;;;2.90;;
36315;SDS011;22343;50.820;2.666;2023-11-21T12:00:53;7.20;;;3.30;;
36315;SDS011;22343;50.820;2.666;2023-11-21T12:03:39;5.10;;;2.70;;
36315;SDS011;22343;50.820;2.666;2023-11-21T12:06:32;7.50;;;2.43;;
36315;SDS011;22343;50.820;2.666;2023-11-21T12:09:20;4.50;;;1.73;;
36315;SDS011;22343;50.820;2.666;2023-11-21T12:12:06;4.13;;;2.10;;
36315;SDS011;22343;50.820;2.666;2023-11-21T12:14:51;4.80;;;2.20;;
36315;SDS011;22343;50.820;2.666;2023-11-21T12:17:35;4.30;;;2.27;;
36315;SDS011;22343;50.820;2.666;2023-11-21T12:20:20;4.63;;;2.13;;
36315;SDS011;22343;50.820;2.666;2023-11-21T12:23:07;3.33;;;1.87;;
36315;SDS011;22343;50.820;2.666;2023-11-21T12:25:55;5.33;;;2.03;;
36315;SDS011;22343;50.820;2.666;2023-11-21T12:28:40;3.43;;;1.80;;
36315;SDS011;22343;50.820;2.666;2023-11-21T12:31:24;5.80;;;2.10;;
36315;SDS011;22343;50.820;2.666;2023-11-21T12:34:08;3.23;;;1.97;;
36315;SDS011;22343;50.820;2.666;2023-11-21T12:36:55;4.03;;;2.00;;
36315;SDS011;22343;50.820;2.666;2023-11-21T12:39:39;3.33;;;2.07;;
36315;SDS011;22343;50.820;2.666;2023-11-21T12:42:23;4.03;;;1.90;;
36315;SDS011;22343;50.820;2.666;2023-11-21T12:45:09;4.60;;;2.23;;
36315;SDS011;22343;50.820;2.666;2023-11-21T12:48:04;7.80;;;2.60;;
36315;SDS011;22343;50.820;2.666;2023-11-21T12:50:52;4.13;;;1.83;;
36315;SDS011;22343;50.820;2.666;2023-11-21T12:53:37;3.57;;;1.83;;
36315;SDS011;22343;50.820;2.666;2023-11-21T12:56:22;3.53;;;1.80;;
36315;SDS011;22343;50.820;2.666;2023-11-21T12:59:09;4.57;;;2.00;;
36315;SDS011;22343;50.820;2.666;2023-11-21T13:01:57;4.37;;;2.07;;
36315;SDS011;22343;50.820;2.666;2023-11-21T13:04:51;5.70;;;2.10;;
36315;SDS011;22343;50.820;2.666;2023-11-21T13:07:41;6.03;;;2.30;;
36315;SDS011;22343;50.820;2.666;2023-11-21T13:10:31;6.53;;;2.20;;
36315;SDS011;22343;50.820;2.666;2023-11-21T13:13:16;5.30;;;2.53;;
36315;SDS011;22343;50.820;2.666;2023-11-21T13:16:01;6.40;;;2.63;;
36315;SDS011;22343;50.820;2.666;2023-11-21T13:18:49;5.23;;;2.33;;
36315;SDS011;22343;50.820;2.666;2023-11-21T13:21:34;5.47;;;2.90;;
36315;SDS011;22343;50.820;2.666;2023-11-21T13:24:19;7.40;;;2.70;;
36315;SDS011;22343;50.820;2.666;2023-11-21T13:27:03;8.33;;;2.67;;
36315;SDS011;22343;50.820;2.666;2023-11-21T13:29:47;5.43;;;2.07;;
36315;SDS011;22343;50.820;2.666;2023-11-21T13:32:32;7.03;;;2.60;;
36315;SDS011;22343;50.820;2.666;2023-11-21T13:35:16;5.70;;;2.20;;
36315;SDS011;22343;50.820;2.666;2023-11-21T13:38:15;6.40;;;2.50;;
36315;SDS011;22343;50.820;2.666;2023-11-21T13:41:01;5.03;;;2.60;;
36315;SDS011;22343;50.820;2.666;2023-11-21T13:43:46;5.73;;;2.73;;
36315;SDS011;22343;50.820;2.666;2023-11-21T13:46:41;5.23;;;2.57;;
36315;SDS011;22343;50.820;2.666;2023-11-21T13:49:25;9.63;;;3.30;;
36315;SDS011;22343;50.820;2.666;2023-11-21T13:52:10;6.27;;;2.90;;
36315;SDS011;22343;50.820;2.666;2023-11-21T13:54:59;7.00;;;2.43;;
36315;SDS011;22343;50.820;2.666;2023-11-21T13:57:46;6.33;;;2.83;;
36315;SDS011;22343;50.820;2.666;2023-11-21T14:00:33;5.60;;;2.80;;
36315;SDS011;22343;50.820;2.666;2023-11-21T14:03:28;5.30;;;2.33;;
36315;SDS011;22343;50.820;2.666;2023-11-21T14:06:28;10.27;;;2.63;;
36315;SDS011;22343;50.820;2.666;2023-11-21T14:09:19;6.77;;;2.60;;
36315;SDS011;22343;50.820;2.666;2023-11-21T14:12:07;6.90;;;2.87;;
36315;SDS011;22343;50.820;2.666;2023-11-21T14:14:56;11.13;;;3.03;;
36315;SDS011;22343;50.820;2.666;2023-11-21T14:17:40;6.47;;;2.70;;
36315;SDS011;22343;50.820;2.666;2023-11-21T14:20:26;8.27;;;2.83;;
36315;SDS011;22343;50.820;2.666;2023-11-21T14:23:10;6.53;;;2.50;;
36315;SDS011;22343;50.820;2.666;2023-11-21T14:25:55;5.67;;;2.60;;
36315;SDS011;22343;50.820;2.666;2023-11-21T14:28:40;5.97;;;2.63;;
36315;SDS011;22343;50.820;2.666;2023-11-21T14:31:25;5.93;;;2.80;;
36315;SDS011;22343;50.820;2.666;2023-11-21T14:34:11;5.60;;;2.73;;
36315;SDS011;22343;50.820;2.666;2023-11-21T14:36:57;8.23;;;3.20;;
36315;SDS011;22343;50.820;2.666;2023-11-21T14:39:42;6.57;;;2.90;;
36315;SDS011;22343;50.820;2.666;2023-11-21T14:42:29;6.37;;;2.53;;
36315;SDS011;22343;50.820;2.666;2023-11-21T14:45:13;10.70;;;3.73;;
36315;SDS011;22343;50.820;2.666;2023-11-21T14:48:03;8.00;;;3.50;;
36315;SDS011;22343;50.820;2.666;2023-11-21T14:50:59;9.93;;;4.07;;
36315;SDS011;22343;50.820;2.666;2023-11-21T14:53:46;9.47;;;3.03;;
36315;SDS011;22343;50.820;2.666;2023-11-21T14:56:37;9.87;;;3.93;;
36315;SDS011;22343;50.820;2.666;2023-11-21T14:59:22;9.87;;;3.23;;
36315;SDS011;22343;50.820;2.666;2023-11-21T15:02:07;11.07;;;4.37;;
36315;SDS011;22343;50.820;2.666;2023-11-21T15:05:04;7.90;;;3.90;;
36315;SDS011;22343;50.820;2.666;2023-11-21T15:07:50;6.70;;;2.87;;
36315;SDS011;22343;50.820;2.666;2023-11-21T15:10:39;7.27;;;3.00;;
36315;SDS011;22343;50.820;2.666;2023-11-21T15:13:31;8.67;;;2.77;;
36315;SDS011;22343;50.820;2.666;2023-11-21T15:16:16;6.93;;;3.00;;
36315;SDS011;22343;50.820;2.666;2023-11-21T15:19:00;6.87;;;2.93;;
36315;SDS011;22343;50.820;2.666;2023-11-21T15:21:45;10.83;;;3.63;;
36315;SDS011;22343;50.820;2.666;2023-11-21T15:24:29;8.13;;;3.57;;
36315;SDS011;22343;50.820;2.666;2023-11-21T15:27:14;8.80;;;3.50;;
36315;SDS011;22343;50.820;2.666;2023-11-21T15:29:59;8.03;;;3.33;;
36315;SDS011;22343;50.820;2.666;2023-11-21T15:32:43;8.40;;;3.53;;
36315;SDS011;22343;50.820;2.666;2023-11-21T15:35:28;6.67;;;3.67;;
36315;SDS011;22343;50.820;2.666;2023-11-21T15:38:12;8.90;;;3.00;;
36315;SDS011;22343;50.820;2.666;2023-11-21T15:40:57;8.53;;;3.47;;
36315;SDS011;22343;50.820;2.666;2023-11-21T15:43:42;9.30;;;3.23;;
36315;SDS011;22343;50.820;2.666;2023-11-21T15:46:27;7.03;;;2.97;;
36315;SDS011;22343;50.820;2.666;2023-11-21T15:49:11;10.67;;;3.00;;
36315;SDS011;22343;50.820;2.666;2023-11-21T15:52:02;7.17;;;2.80;;
36315;SDS011;22343;50.820;2.666;2023-11-21T15:54:47;7.63;;;3.00;;
36315;SDS011;22343;50.820;2.666;2023-11-21T15:57:32;7.50;;;3.10;;
36315;SDS011;22343;50.820;2.666;2023-11-21T16:00:16;6.07;;;2.93;;
36315;SDS011;22343;50.820;2.666;2023-11-21T16:03:03;8.27;;;3.47;;
36315;SDS011;22343;50.820;2.666;2023-11-21T16:05:48;8.90;;;3.50;;
36315;SDS011;22343;50.820;2.666;2023-11-21T16:08:32;5.83;;;3.03;;
36315;SDS011;22343;50.820;2.666;2023-11-21T16:11:17;8.70;;;3.60;;
36315;SDS011;22343;50.820;2.666;2023-11-21T16:14:01;7.50;;;3.10;;
36315;SDS011;22343;50.820;2.666;2023-11-21T16:16:46;10.47;;;3.07;;
36315;SDS011;22343;50.820;2.666;2023-11-21T16:19:30;8.23;;;3.33;;
36315;SDS011;22343;50.820;2.666;2023-11-21T16:22:15;6.97;;;3.60;;
36315;SDS011;22343;50.820;2.666;2023-11-21T16:25:00;12.63;;;3.30;;
36315;SDS011;22343;50.820;2.666;2023-11-21T16:27:44;9.67;;;3.90;;
36315;SDS011;22343;50.820;2.666;2023-11-21T16:30:30;10.53;;;4.03;;
36315;SDS011;22343;50.820;2.666;2023-11-21T16:33:17;9.90;;;3.40;;
36315;SDS011;22343;50.820;2.666;2023-11-21T16:36:02;9.33;;;4.17;;
36315;SDS011;22343;50.820;2.666;2023-11-21T16:38:46;7.50;;;4.23;;
36315;SDS011;22343;50.820;2.666;2023-11-21T16:41:31;7.80;;;4.20;;